Lawrence, MA (01842)

3:09 PM EDT on July 24, 2016 (GMT -0400)
lawrence | | Change Station

Elev 98 ft 42.72 °N, 71.15 °W | Updated 4 minutes ago

Clear
Clear
86.7 °F
Feels Like 87 °F
N
0.0
Wind Variable Wind from NNW
Gusts 12.0 mph

Today
High -- | Low -- °F
--% Chance of Precip.
Yesterday
High -- | Low -- °F
Precip. -- in
Pressure 29.94 in
Visibility 10.0 miles
Clouds Clear
Heat Index 87 °F
Dew Point 61 °F
Humidity 42%
Rainfall 0.00 in
Snow Depth Not available.
5:28 AM 8:13 PM
Waning Gibbous, 74% visible
METAR KLWM 241854Z 27011G17KT 10SM CLR 32/14 A2994 RMK AO2 SLP137 T03170139
Pressure 29.94 in
Visibility 10.0 miles
Clouds Clear
Heat Index 87 °F
Dew Point 61 °F
Humidity 42%
Rainfall 0.00 in
Snow Depth Not available.
5:28 AM 8:13 PM
Waning Gibbous, 74% visible
METAR KLWM 241854Z 27011G17KT 10SM CLR 32/14 A2994 RMK AO2 SLP137 T03170139

10-Day Weather Forecast

Almanac

Astronomy

Jul. 24, 2016 Rise Set
Actual Time
Civil Twilight
Nautical Twilight
Astronomical Twilight
Moon
Length of Visible Light
Length of Day
Tomorrow will be .
, % of the Moon is Illuminated

Today's Extremes

State Highs State Lows

Community

WunderPhotos

Upload Photos

1,927,163 photos uploaded!

WunderBlog® & News

Nearby

Air Quality

  Air Quality AQ Index Pollutant
Not available.

Snow Depth

Station Depth Elevation

Earthquake Activity

City Distance Mag. Time & Date
Minimum magnitude displayed is 2.5.

Coastal Water Temperatures

Place Temperature

Stations

Nearby Weather Stations

Station Location Temp. Windchill Dew Point Humidity Wind Precip. Elev Updated Type
                   

Watches & Warnings

There are currently no watches in effect.